sensor_id;sensor_type;location;lat;lon;timestamp;P1;durP1;ratioP1;P2;durP2;ratioP2
21820;SDS011;11073;48.586;12.066;2022-08-01T00:00:11;2.97;;;2.15;;
21820;SDS011;11073;48.586;12.066;2022-08-01T00:02:40;4.38;;;2.50;;
21820;SDS011;11073;48.586;12.066;2022-08-01T00:05:09;2.88;;;2.20;;
21820;SDS011;11073;48.586;12.066;2022-08-01T00:07:39;2.58;;;1.98;;
21820;SDS011;11073;48.586;12.066;2022-08-01T00:10:10;3.50;;;2.30;;
21820;SDS011;11073;48.586;12.066;2022-08-01T00:12:41;4.25;;;2.10;;
21820;SDS011;11073;48.586;12.066;2022-08-01T00:15:11;4.38;;;1.95;;
21820;SDS011;11073;48.586;12.066;2022-08-01T00:17:43;4.60;;;2.03;;
21820;SDS011;11073;48.586;12.066;2022-08-01T00:20:13;3.38;;;1.83;;
21820;SDS011;11073;48.586;12.066;2022-08-01T00:22:43;5.13;;;2.17;;
21820;SDS011;11073;48.586;12.066;2022-08-01T00:25:13;2.25;;;1.77;;
21820;SDS011;11073;48.586;12.066;2022-08-01T00:27:42;4.40;;;2.17;;
21820;SDS011;11073;48.586;12.066;2022-08-01T00:30:13;3.42;;;1.95;;
21820;SDS011;11073;48.586;12.066;2022-08-01T00:32:42;2.95;;;2.10;;
21820;SDS011;11073;48.586;12.066;2022-08-01T00:35:11;4.55;;;2.45;;
21820;SDS011;11073;48.586;12.066;2022-08-01T00:37:40;2.20;;;2.00;;
21820;SDS011;11073;48.586;12.066;2022-08-01T00:40:09;3.10;;;1.92;;
21820;SDS011;11073;48.586;12.066;2022-08-01T00:42:40;3.33;;;1.83;;
21820;SDS011;11073;48.586;12.066;2022-08-01T00:45:10;2.58;;;2.08;;
21820;SDS011;11073;48.586;12.066;2022-08-01T00:47:39;6.38;;;1.70;;
21820;SDS011;11073;48.586;12.066;2022-08-01T00:50:09;3.45;;;1.80;;
21820;SDS011;11073;48.586;12.066;2022-08-01T00:52:39;3.58;;;1.98;;
21820;SDS011;11073;48.586;12.066;2022-08-01T00:55:17;2.10;;;1.90;;
21820;SDS011;11073;48.586;12.066;2022-08-01T00:57:48;3.90;;;2.38;;
21820;SDS011;11073;48.586;12.066;2022-08-01T01:00:33;5.15;;;1.88;;
21820;SDS011;11073;48.586;12.066;2022-08-01T01:03:21;2.47;;;2.00;;
21820;SDS011;11073;48.586;12.066;2022-08-01T01:06:23;2.55;;;1.98;;
21820;SDS011;11073;48.586;12.066;2022-08-01T01:08:58;4.03;;;1.88;;
21820;SDS011;11073;48.586;12.066;2022-08-01T01:11:44;4.22;;;2.22;;
21820;SDS011;11073;48.586;12.066;2022-08-01T01:14:23;2.10;;;1.90;;
21820;SDS011;11073;48.586;12.066;2022-08-01T01:16:59;2.78;;;1.95;;
21820;SDS011;11073;48.586;12.066;2022-08-01T01:19:31;5.65;;;2.13;;
21820;SDS011;11073;48.586;12.066;2022-08-01T01:22:13;3.17;;;2.13;;
21820;SDS011;11073;48.586;12.066;2022-08-01T01:24:56;5.30;;;2.17;;
21820;SDS011;11073;48.586;12.066;2022-08-01T01:27:36;3.67;;;2.38;;
21820;SDS011;11073;48.586;12.066;2022-08-01T01:30:15;4.45;;;2.40;;
21820;SDS011;11073;48.586;12.066;2022-08-01T01:32:44;3.47;;;2.33;;
21820;SDS011;11073;48.586;12.066;2022-08-01T01:35:18;4.00;;;2.40;;
21820;SDS011;11073;48.586;12.066;2022-08-01T01:37:52;2.90;;;2.33;;
21820;SDS011;11073;48.586;12.066;2022-08-01T01:40:26;2.53;;;2.08;;
21820;SDS011;11073;48.586;12.066;2022-08-01T01:42:56;3.15;;;2.60;;
21820;SDS011;11073;48.586;12.066;2022-08-01T01:45:26;2.50;;;2.30;;
21820;SDS011;11073;48.586;12.066;2022-08-01T01:47:56;2.47;;;2.00;;
21820;SDS011;11073;48.586;12.066;2022-08-01T01:50:27;2.10;;;2.00;;
21820;SDS011;11073;48.586;12.066;2022-08-01T01:52:57;2.28;;;2.08;;
21820;SDS011;11073;48.586;12.066;2022-08-01T01:55:29;2.92;;;2.10;;
21820;SDS011;11073;48.586;12.066;2022-08-01T01:58:15;2.85;;;2.22;;
21820;SDS011;11073;48.586;12.066;2022-08-01T02:00:46;4.28;;;2.42;;
21820;SDS011;11073;48.586;12.066;2022-08-01T02:03:17;3.05;;;1.90;;
21820;SDS011;11073;48.586;12.066;2022-08-01T02:05:47;2.60;;;2.30;;
21820;SDS011;11073;48.586;12.066;2022-08-01T02:08:16;3.83;;;2.40;;
21820;SDS011;11073;48.586;12.066;2022-08-01T02:10:46;3.83;;;2.60;;
21820;SDS011;11073;48.586;12.066;2022-08-01T02:13:30;4.07;;;2.38;;
21820;SDS011;11073;48.586;12.066;2022-08-01T02:16:02;2.15;;;1.98;;
21820;SDS011;11073;48.586;12.066;2022-08-01T02:18:32;3.05;;;2.35;;
21820;SDS011;11073;48.586;12.066;2022-08-01T02:21:01;2.50;;;2.30;;
21820;SDS011;11073;48.586;12.066;2022-08-01T02:23:33;2.63;;;2.22;;
21820;SDS011;11073;48.586;12.066;2022-08-01T02:26:07;4.35;;;2.60;;
21820;SDS011;11073;48.586;12.066;2022-08-01T02:28:41;3.45;;;2.00;;
21820;SDS011;11073;48.586;12.066;2022-08-01T02:31:17;2.25;;;2.03;;
21820;SDS011;11073;48.586;12.066;2022-08-01T02:33:54;4.28;;;2.10;;
21820;SDS011;11073;48.586;12.066;2022-08-01T02:36:28;2.65;;;2.20;;
21820;SDS011;11073;48.586;12.066;2022-08-01T02:39:02;4.05;;;2.08;;
21820;SDS011;11073;48.586;12.066;2022-08-01T02:41:35;3.03;;;1.95;;
21820;SDS011;11073;48.586;12.066;2022-08-01T02:44:10;2.13;;;1.80;;
21820;SDS011;11073;48.586;12.066;2022-08-01T02:46:48;2.72;;;1.90;;
21820;SDS011;11073;48.586;12.066;2022-08-01T02:49:19;3.70;;;2.25;;
21820;SDS011;11073;48.586;12.066;2022-08-01T02:51:50;2.70;;;1.98;;
21820;SDS011;11073;48.586;12.066;2022-08-01T02:54:20;4.85;;;2.30;;
21820;SDS011;11073;48.586;12.066;2022-08-01T02:56:51;3.05;;;2.20;;
21820;SDS011;11073;48.586;12.066;2022-08-01T02:59:24;6.57;;;2.10;;
21820;SDS011;11073;48.586;12.066;2022-08-01T03:01:58;2.83;;;2.38;;
21820;SDS011;11073;48.586;12.066;2022-08-01T03:04:30;3.25;;;2.20;;
21820;SDS011;11073;48.586;12.066;2022-08-01T03:07:02;2.30;;;2.10;;
21820;SDS011;11073;48.586;12.066;2022-08-01T03:09:37;2.53;;;2.28;;
21820;SDS011;11073;48.586;12.066;2022-08-01T03:12:10;2.63;;;2.00;;
21820;SDS011;11073;48.586;12.066;2022-08-01T03:14:41;15.52;;;2.53;;
21820;SDS011;11073;48.586;12.066;2022-08-01T03:17:14;2.95;;;2.25;;
21820;SDS011;11073;48.586;12.066;2022-08-01T03:19:44;4.07;;;1.90;;
21820;SDS011;11073;48.586;12.066;2022-08-01T03:22:14;2.88;;;2.00;;
21820;SDS011;11073;48.586;12.066;2022-08-01T03:24:45;2.20;;;2.00;;
21820;SDS011;11073;48.586;12.066;2022-08-01T03:27:19;2.42;;;2.03;;
21820;SDS011;11073;48.586;12.066;2022-08-01T03:29:50;4.93;;;2.05;;
21820;SDS011;11073;48.586;12.066;2022-08-01T03:32:21;4.03;;;2.05;;
21820;SDS011;11073;48.586;12.066;2022-08-01T03:34:51;3.15;;;1.92;;
21820;SDS011;11073;48.586;12.066;2022-08-01T03:37:21;2.70;;;1.95;;
21820;SDS011;11073;48.586;12.066;2022-08-01T03:39:54;4.22;;;1.90;;
21820;SDS011;11073;48.586;12.066;2022-08-01T03:42:28;4.18;;;2.20;;
21820;SDS011;11073;48.586;12.066;2022-08-01T03:45:02;4.20;;;2.10;;
21820;SDS011;11073;48.586;12.066;2022-08-01T03:47:41;3.42;;;2.20;;
21820;SDS011;11073;48.586;12.066;2022-08-01T03:50:13;2.85;;;2.20;;
21820;SDS011;11073;48.586;12.066;2022-08-01T03:52:43;4.35;;;2.35;;
21820;SDS011;11073;48.586;12.066;2022-08-01T03:55:15;3.40;;;1.90;;
21820;SDS011;11073;48.586;12.066;2022-08-01T03:57:45;2.97;;;2.13;;
21820;SDS011;11073;48.586;12.066;2022-08-01T04:00:15;3.75;;;2.40;;
21820;SDS011;11073;48.586;12.066;2022-08-01T04:02:47;3.05;;;2.00;;
21820;SDS011;11073;48.586;12.066;2022-08-01T04:05:16;7.53;;;2.60;;
21820;SDS011;11073;48.586;12.066;2022-08-01T04:07:46;3.00;;;2.10;;
21820;SDS011;11073;48.586;12.066;2022-08-01T04:10:17;3.75;;;2.25;;
21820;SDS011;11073;48.586;12.066;2022-08-01T04:12:46;3.17;;;2.05;;
21820;SDS011;11073;48.586;12.066;2022-08-01T04:15:14;3.35;;;1.92;;
21820;SDS011;11073;48.586;12.066;2022-08-01T04:17:43;3.60;;;1.95;;
21820;SDS011;11073;48.586;12.066;2022-08-01T04:20:14;2.58;;;1.90;;
21820;SDS011;11073;48.586;12.066;2022-08-01T04:22:43;2.92;;;1.98;;
21820;SDS011;11073;48.586;12.066;2022-08-01T04:25:12;2.70;;;2.00;;
21820;SDS011;11073;48.586;12.066;2022-08-01T04:27:47;2.33;;;2.08;;
21820;SDS011;11073;48.586;12.066;2022-08-01T04:30:19;2.47;;;2.08;;
21820;SDS011;11073;48.586;12.066;2022-08-01T04:32:50;2.83;;;2.10;;
21820;SDS011;11073;48.586;12.066;2022-08-01T04:35:24;4.43;;;2.00;;
21820;SDS011;11073;48.586;12.066;2022-08-01T04:38:16;3.55;;;2.15;;
21820;SDS011;11073;48.586;12.066;2022-08-01T04:40:50;2.45;;;2.13;;
21820;SDS011;11073;48.586;12.066;2022-08-01T04:43:20;4.47;;;2.40;;
21820;SDS011;11073;48.586;12.066;2022-08-01T04:45:50;2.40;;;2.17;;
21820;SDS011;11073;48.586;12.066;2022-08-01T04:48:20;4.57;;;2.08;;
21820;SDS011;11073;48.586;12.066;2022-08-01T04:50:53;3.83;;;2.38;;
21820;SDS011;11073;48.586;12.066;2022-08-01T04:53:22;4.90;;;2.00;;
21820;SDS011;11073;48.586;12.066;2022-08-01T04:55:52;3.72;;;2.53;;
21820;SDS011;11073;48.586;12.066;2022-08-01T04:58:21;2.17;;;1.88;;
21820;SDS011;11073;48.586;12.066;2022-08-01T05:00:50;3.15;;;2.13;;
21820;SDS011;11073;48.586;12.066;2022-08-01T05:03:19;3.00;;;1.92;;
21820;SDS011;11073;48.586;12.066;2022-08-01T05:05:48;2.90;;;2.03;;
21820;SDS011;11073;48.586;12.066;2022-08-01T05:08:18;3.47;;;2.35;;
21820;SDS011;11073;48.586;12.066;2022-08-01T05:10:47;6.30;;;2.03;;
21820;SDS011;11073;48.586;12.066;2022-08-01T05:13:16;3.33;;;2.20;;
21820;SDS011;11073;48.586;12.066;2022-08-01T05:15:45;3.45;;;2.20;;
21820;SDS011;11073;48.586;12.066;2022-08-01T05:18:13;2.70;;;1.95;;
21820;SDS011;11073;48.586;12.066;2022-08-01T05:20:53;4.53;;;2.47;;
21820;SDS011;11073;48.586;12.066;2022-08-01T05:23:23;2.65;;;2.05;;
21820;SDS011;11073;48.586;12.066;2022-08-01T05:26:10;2.00;;;1.83;;
21820;SDS011;11073;48.586;12.066;2022-08-01T05:28:41;2.35;;;2.00;;
21820;SDS011;11073;48.586;12.066;2022-08-01T05:31:10;3.28;;;2.25;;
21820;SDS011;11073;48.586;12.066;2022-08-01T05:33:39;3.80;;;2.25;;
21820;SDS011;11073;48.586;12.066;2022-08-01T05:36:07;3.45;;;2.15;;
21820;SDS011;11073;48.586;12.066;2022-08-01T05:38:38;3.30;;;2.00;;
21820;SDS011;11073;48.586;12.066;2022-08-01T05:41:07;4.35;;;1.85;;
21820;SDS011;11073;48.586;12.066;2022-08-01T05:43:35;4.10;;;2.00;;
21820;SDS011;11073;48.586;12.066;2022-08-01T05:46:04;3.88;;;2.20;;
21820;SDS011;11073;48.586;12.066;2022-08-01T05:48:33;3.80;;;2.17;;
21820;SDS011;11073;48.586;12.066;2022-08-01T05:51:02;2.40;;;2.20;;
21820;SDS011;11073;48.586;12.066;2022-08-01T05:53:31;3.80;;;2.35;;
21820;SDS011;11073;48.586;12.066;2022-08-01T05:56:03;3.55;;;1.90;;
21820;SDS011;11073;48.586;12.066;2022-08-01T05:58:31;2.30;;;2.00;;
21820;SDS011;11073;48.586;12.066;2022-08-01T06:01:00;5.05;;;2.05;;
21820;SDS011;11073;48.586;12.066;2022-08-01T06:03:29;5.40;;;2.45;;
21820;SDS011;11073;48.586;12.066;2022-08-01T06:06:00;4.65;;;2.10;;
21820;SDS011;11073;48.586;12.066;2022-08-01T06:08:29;5.35;;;2.30;;
21820;SDS011;11073;48.586;12.066;2022-08-01T06:10:58;2.58;;;2.28;;
21820;SDS011;11073;48.586;12.066;2022-08-01T06:13:28;3.53;;;2.10;;
21820;SDS011;11073;48.586;12.066;2022-08-01T06:15:57;4.07;;;2.30;;
21820;SDS011;11073;48.586;12.066;2022-08-01T06:18:25;5.25;;;2.35;;
21820;SDS011;11073;48.586;12.066;2022-08-01T06:20:54;2.78;;;2.20;;
21820;SDS011;11073;48.586;12.066;2022-08-01T06:23:23;2.75;;;2.00;;
21820;SDS011;11073;48.586;12.066;2022-08-01T06:25:59;2.38;;;2.17;;
21820;SDS011;11073;48.586;12.066;2022-08-01T06:28:29;3.63;;;2.00;;
21820;SDS011;11073;48.586;12.066;2022-08-01T06:30:58;2.40;;;2.00;;
21820;SDS011;11073;48.586;12.066;2022-08-01T06:33:27;2.70;;;1.90;;
21820;SDS011;11073;48.586;12.066;2022-08-01T06:35:56;4.45;;;1.90;;
21820;SDS011;11073;48.586;12.066;2022-08-01T06:38:25;2.95;;;2.10;;
21820;SDS011;11073;48.586;12.066;2022-08-01T06:40:53;3.95;;;2.03;;
21820;SDS011;11073;48.586;12.066;2022-08-01T06:43:22;3.95;;;1.80;;
21820;SDS011;11073;48.586;12.066;2022-08-01T06:45:52;2.65;;;1.73;;
21820;SDS011;11073;48.586;12.066;2022-08-01T06:48:21;2.17;;;1.63;;
21820;SDS011;11073;48.586;12.066;2022-08-01T06:50:49;3.10;;;1.80;;
21820;SDS011;11073;48.586;12.066;2022-08-01T06:53:35;2.10;;;1.45;;
21820;SDS011;11073;48.586;12.066;2022-08-01T06:56:05;2.15;;;1.65;;
21820;SDS011;11073;48.586;12.066;2022-08-01T06:58:36;3.85;;;1.80;;
21820;SDS011;11073;48.586;12.066;2022-08-01T07:01:05;2.40;;;1.83;;
21820;SDS011;11073;48.586;12.066;2022-08-01T07:03:35;3.45;;;1.80;;
21820;SDS011;11073;48.586;12.066;2022-08-01T07:06:21;2.38;;;1.90;;
21820;SDS011;11073;48.586;12.066;2022-08-01T07:08:50;3.10;;;1.88;;
21820;SDS011;11073;48.586;12.066;2022-08-01T07:11:20;3.45;;;2.35;;
21820;SDS011;11073;48.586;12.066;2022-08-01T07:13:50;2.17;;;2.00;;
21820;SDS011;11073;48.586;12.066;2022-08-01T07:16:20;4.72;;;2.10;;
21820;SDS011;11073;48.586;12.066;2022-08-01T07:18:49;5.35;;;2.50;;
21820;SDS011;11073;48.586;12.066;2022-08-01T07:21:18;2.83;;;1.75;;
21820;SDS011;11073;48.586;12.066;2022-08-01T07:24:08;4.53;;;2.10;;
21820;SDS011;11073;48.586;12.066;2022-08-01T07:26:40;3.22;;;2.17;;
21820;SDS011;11073;48.586;12.066;2022-08-01T07:29:21;2.85;;;2.25;;
21820;SDS011;11073;48.586;12.066;2022-08-01T07:31:52;3.75;;;2.50;;
21820;SDS011;11073;48.586;12.066;2022-08-01T07:34:21;3.42;;;2.17;;
21820;SDS011;11073;48.586;12.066;2022-08-01T07:36:51;3.83;;;2.28;;
21820;SDS011;11073;48.586;12.066;2022-08-01T07:39:20;2.97;;;1.80;;
21820;SDS011;11073;48.586;12.066;2022-08-01T07:41:50;4.45;;;2.25;;
21820;SDS011;11073;48.586;12.066;2022-08-01T07:44:34;4.45;;;2.42;;
21820;SDS011;11073;48.586;12.066;2022-08-01T07:47:05;3.85;;;2.08;;
21820;SDS011;11073;48.586;12.066;2022-08-01T07:49:34;3.85;;;2.30;;
21820;SDS011;11073;48.586;12.066;2022-08-01T07:52:07;2.75;;;2.15;;
21820;SDS011;11073;48.586;12.066;2022-08-01T07:54:35;2.65;;;1.90;;
21820;SDS011;11073;48.586;12.066;2022-08-01T07:57:04;3.15;;;2.10;;
21820;SDS011;11073;48.586;12.066;2022-08-01T07:59:34;2.92;;;2.25;;
21820;SDS011;11073;48.586;12.066;2022-08-01T08:02:04;4.57;;;2.30;;
21820;SDS011;11073;48.586;12.066;2022-08-01T08:04:33;2.70;;;2.10;;
21820;SDS011;11073;48.586;12.066;2022-08-01T08:07:02;2.40;;;2.20;;
21820;SDS011;11073;48.586;12.066;2022-08-01T08:09:31;3.40;;;2.25;;
21820;SDS011;11073;48.586;12.066;2022-08-01T08:12:04;3.88;;;2.58;;
21820;SDS011;11073;48.586;12.066;2022-08-01T08:14:35;2.53;;;2.03;;
21820;SDS011;11073;48.586;12.066;2022-08-01T08:17:05;3.38;;;2.20;;
21820;SDS011;11073;48.586;12.066;2022-08-01T08:19:34;3.53;;;2.28;;
21820;SDS011;11073;48.586;12.066;2022-08-01T08:22:06;4.65;;;2.30;;
21820;SDS011;11073;48.586;12.066;2022-08-01T08:24:36;2.78;;;2.30;;
21820;SDS011;11073;48.586;12.066;2022-08-01T08:27:13;2.47;;;2.13;;
21820;SDS011;11073;48.586;12.066;2022-08-01T08:29:42;2.88;;;2.13;;
21820;SDS011;11073;48.586;12.066;2022-08-01T08:32:12;4.95;;;2.28;;
21820;SDS011;11073;48.586;12.066;2022-08-01T08:34:41;4.50;;;2.10;;
21820;SDS011;11073;48.586;12.066;2022-08-01T08:37:10;4.07;;;2.83;;
21820;SDS011;11073;48.586;12.066;2022-08-01T08:39:39;8.65;;;3.00;;
21820;SDS011;11073;48.586;12.066;2022-08-01T08:42:09;4.00;;;2.70;;
21820;SDS011;11073;48.586;12.066;2022-08-01T08:44:40;3.75;;;2.42;;
21820;SDS011;11073;48.586;12.066;2022-08-01T08:47:10;3.20;;;2.63;;
21820;SDS011;11073;48.586;12.066;2022-08-01T08:49:47;2.83;;;2.40;;
21820;SDS011;11073;48.586;12.066;2022-08-01T08:52:17;3.15;;;2.40;;
21820;SDS011;11073;48.586;12.066;2022-08-01T08:54:48;4.53;;;2.40;;
21820;SDS011;11073;48.586;12.066;2022-08-01T08:57:18;4.57;;;2.83;;
21820;SDS011;11073;48.586;12.066;2022-08-01T08:59:48;2.90;;;2.40;;
21820;SDS011;11073;48.586;12.066;2022-08-01T09:02:20;5.95;;;2.70;;
21820;SDS011;11073;48.586;12.066;2022-08-01T09:04:49;3.75;;;2.42;;
21820;SDS011;11073;48.586;12.066;2022-08-01T09:07:18;3.80;;;2.95;;
21820;SDS011;11073;48.586;12.066;2022-08-01T09:09:47;2.90;;;2.60;;
21820;SDS011;11073;48.586;12.066;2022-08-01T09:12:18;4.18;;;2.28;;
21820;SDS011;11073;48.586;12.066;2022-08-01T09:14:48;3.72;;;2.40;;
21820;SDS011;11073;48.586;12.066;2022-08-01T09:17:22;4.72;;;2.53;;
21820;SDS011;11073;48.586;12.066;2022-08-01T09:19:52;3.78;;;2.63;;
21820;SDS011;11073;48.586;12.066;2022-08-01T09:22:25;5.15;;;2.67;;
21820;SDS011;11073;48.586;12.066;2022-08-01T09:24:58;7.88;;;2.90;;
21820;SDS011;11073;48.586;12.066;2022-08-01T09:27:28;2.88;;;2.17;;
21820;SDS011;11073;48.586;12.066;2022-08-01T09:30:07;4.60;;;2.50;;
21820;SDS011;11073;48.586;12.066;2022-08-01T09:35:25;15.00;;;2.80;;
21820;SDS011;11073;48.586;12.066;2022-08-01T09:38:11;6.60;;;2.78;;
21820;SDS011;11073;48.586;12.066;2022-08-01T09:40:45;3.08;;;2.30;;
21820;SDS011;11073;48.586;12.066;2022-08-01T09:43:15;3.15;;;2.10;;
21820;SDS011;11073;48.586;12.066;2022-08-01T09:45:45;3.08;;;2.10;;
21820;SDS011;11073;48.586;12.066;2022-08-01T09:48:21;3.45;;;2.28;;
21820;SDS011;11073;48.586;12.066;2022-08-01T09:50:55;2.85;;;1.90;;
21820;SDS011;11073;48.586;12.066;2022-08-01T09:53:42;7.85;;;2.33;;
21820;SDS011;11073;48.586;12.066;2022-08-01T09:56:19;5.78;;;2.30;;
21820;SDS011;11073;48.586;12.066;2022-08-01T09:58:49;3.80;;;2.20;;
21820;SDS011;11073;48.586;12.066;2022-08-01T10:01:26;3.20;;;2.20;;
21820;SDS011;11073;48.586;12.066;2022-08-01T10:04:06;4.43;;;2.22;;
21820;SDS011;11073;48.586;12.066;2022-08-01T10:06:38;2.85;;;2.08;;
21820;SDS011;11073;48.586;12.066;2022-08-01T10:09:10;2.42;;;1.80;;
21820;SDS011;11073;48.586;12.066;2022-08-01T10:11:40;3.72;;;2.22;;
21820;SDS011;11073;48.586;12.066;2022-08-01T10:14:11;3.50;;;1.98;;
21820;SDS011;11073;48.586;12.066;2022-08-01T10:16:44;1.80;;;1.70;;
21820;SDS011;11073;48.586;12.066;2022-08-01T10:19:22;1.85;;;1.73;;
21820;SDS011;11073;48.586;12.066;2022-08-01T10:21:55;2.75;;;1.83;;
21820;SDS011;11073;48.586;12.066;2022-08-01T10:24:27;3.03;;;1.95;;
21820;SDS011;11073;48.586;12.066;2022-08-01T10:27:02;2.05;;;1.67;;
21820;SDS011;11073;48.586;12.066;2022-08-01T10:29:42;2.97;;;1.83;;
21820;SDS011;11073;48.586;12.066;2022-08-01T10:32:35;2.28;;;1.80;;
21820;SDS011;11073;48.586;12.066;2022-08-01T10:35:07;3.83;;;1.90;;
21820;SDS011;11073;48.586;12.066;2022-08-01T10:37:43;2.67;;;1.67;;
21820;SDS011;11073;48.586;12.066;2022-08-01T10:40:19;2.08;;;1.60;;
21820;SDS011;11073;48.586;12.066;2022-08-01T10:42:58;5.50;;;1.77;;
21820;SDS011;11073;48.586;12.066;2022-08-01T10:45:26;4.07;;;1.50;;
21820;SDS011;11073;48.586;12.066;2022-08-01T10:47:58;3.88;;;1.65;;
21820;SDS011;11073;48.586;12.066;2022-08-01T10:50:33;1.67;;;1.58;;
21820;SDS011;11073;48.586;12.066;2022-08-01T10:53:08;3.03;;;1.55;;
21820;SDS011;11073;48.586;12.066;2022-08-01T10:55:50;3.25;;;1.50;;
21820;SDS011;11073;48.586;12.066;2022-08-01T10:58:22;4.47;;;1.80;;
21820;SDS011;11073;48.586;12.066;2022-08-01T11:03:58;2.83;;;1.63;;
21820;SDS011;11073;48.586;12.066;2022-08-01T11:06:43;2.95;;;1.58;;
21820;SDS011;11073;48.586;12.066;2022-08-01T11:09:29;1.73;;;1.40;;
21820;SDS011;11073;48.586;12.066;2022-08-01T11:12:05;2.78;;;1.50;;
21820;SDS011;11073;48.586;12.066;2022-08-01T11:18:00;3.25;;;1.50;;
21820;SDS011;11073;48.586;12.066;2022-08-01T11:20:31;2.10;;;1.67;;
21820;SDS011;11073;48.586;12.066;2022-08-01T11:23:18;1.67;;;1.50;;
21820;SDS011;11073;48.586;12.066;2022-08-01T11:28:44;1.92;;;1.67;;
21820;SDS011;11073;48.586;12.066;2022-08-01T11:31:48;4.13;;;1.65;;
21820;SDS011;11073;48.586;12.066;2022-08-01T11:34:17;2.10;;;1.60;;
21820;SDS011;11073;48.586;12.066;2022-08-01T11:36:47;3.17;;;1.63;;
21820;SDS011;11073;48.586;12.066;2022-08-01T11:39:27;4.38;;;1.70;;
21820;SDS011;11073;48.586;12.066;2022-08-01T11:41:58;2.63;;;1.40;;
21820;SDS011;11073;48.586;12.066;2022-08-01T11:44:48;1.70;;;1.60;;
21820;SDS011;11073;48.586;12.066;2022-08-01T11:47:18;2.00;;;1.50;;
21820;SDS011;11073;48.586;12.066;2022-08-01T11:50:29;2.42;;;1.50;;
21820;SDS011;11073;48.586;12.066;2022-08-01T11:52:59;3.83;;;1.40;;
21820;SDS011;11073;48.586;12.066;2022-08-01T11:55:31;8.45;;;2.53;;
21820;SDS011;11073;48.586;12.066;2022-08-01T11:58:02;4.80;;;1.63;;
21820;SDS011;11073;48.586;12.066;2022-08-01T12:00:35;2.40;;;1.50;;
21820;SDS011;11073;48.586;12.066;2022-08-01T12:03:10;1.90;;;1.40;;
21820;SDS011;11073;48.586;12.066;2022-08-01T12:05:58;2.58;;;1.70;;
21820;SDS011;11073;48.586;12.066;2022-08-01T12:08:27;2.45;;;1.65;;
21820;SDS011;11073;48.586;12.066;2022-08-01T12:11:02;3.05;;;1.42;;
21820;SDS011;11073;48.586;12.066;2022-08-01T12:13:40;2.45;;;1.50;;
21820;SDS011;11073;48.586;12.066;2022-08-01T12:16:10;2.17;;;1.40;;
21820;SDS011;11073;48.586;12.066;2022-08-01T12:18:40;2.80;;;1.30;;
21820;SDS011;11073;48.586;12.066;2022-08-01T12:21:10;8.73;;;2.00;;
21820;SDS011;11073;48.586;12.066;2022-08-01T12:23:38;13.73;;;2.75;;
21820;SDS011;11073;48.586;12.066;2022-08-01T12:26:08;19.02;;;2.97;;
21820;SDS011;11073;48.586;12.066;2022-08-01T12:28:57;23.45;;;3.30;;
21820;SDS011;11073;48.586;12.066;2022-08-01T12:31:32;7.80;;;1.70;;
21820;SDS011;11073;48.586;12.066;2022-08-01T12:36:56;8.73;;;2.15;;
21820;SDS011;11073;48.586;12.066;2022-08-01T12:39:30;11.50;;;1.80;;
21820;SDS011;11073;48.586;12.066;2022-08-01T12:42:01;11.45;;;1.75;;
21820;SDS011;11073;48.586;12.066;2022-08-01T12:44:34;2.10;;;1.10;;
21820;SDS011;11073;48.586;12.066;2022-08-01T12:47:03;5.28;;;1.33;;
21820;SDS011;11073;48.586;12.066;2022-08-01T12:49:35;3.20;;;1.10;;
21820;SDS011;11073;48.586;12.066;2022-08-01T12:52:05;2.60;;;1.40;;
21820;SDS011;11073;48.586;12.066;2022-08-01T12:57:46;12.50;;;1.95;;
21820;SDS011;11073;48.586;12.066;2022-08-01T13:00:19;6.57;;;1.50;;
21820;SDS011;11073;48.586;12.066;2022-08-01T13:02:59;4.47;;;1.40;;
21820;SDS011;11073;48.586;12.066;2022-08-01T13:05:40;7.53;;;1.52;;
21820;SDS011;11073;48.586;12.066;2022-08-01T13:08:11;4.20;;;1.52;;
21820;SDS011;11073;48.586;12.066;2022-08-01T13:10:41;1.52;;;1.10;;
21820;SDS011;11073;48.586;12.066;2022-08-01T13:13:11;1.42;;;1.13;;
21820;SDS011;11073;48.586;12.066;2022-08-01T13:16:02;2.55;;;1.50;;
21820;SDS011;11073;48.586;12.066;2022-08-01T13:18:35;3.72;;;1.10;;
21820;SDS011;11073;48.586;12.066;2022-08-01T13:21:08;1.38;;;1.20;;
21820;SDS011;11073;48.586;12.066;2022-08-01T13:23:38;1.63;;;1.33;;
21820;SDS011;11073;48.586;12.066;2022-08-01T13:26:37;1.17;;;1.08;;
21820;SDS011;11073;48.586;12.066;2022-08-01T13:29:09;4.20;;;1.20;;
21820;SDS011;11073;48.586;12.066;2022-08-01T13:31:39;1.10;;;1.00;;
21820;SDS011;11073;48.586;12.066;2022-08-01T13:34:09;1.17;;;1.08;;
21820;SDS011;11073;48.586;12.066;2022-08-01T13:36:39;2.30;;;1.30;;
21820;SDS011;11073;48.586;12.066;2022-08-01T13:39:15;1.88;;;1.20;;
21820;SDS011;11073;48.586;12.066;2022-08-01T13:42:02;2.08;;;1.08;;
21820;SDS011;11073;48.586;12.066;2022-08-01T13:44:33;2.15;;;1.17;;
21820;SDS011;11073;48.586;12.066;2022-08-01T13:47:02;1.50;;;1.17;;
21820;SDS011;11073;48.586;12.066;2022-08-01T13:49:45;1.23;;;1.13;;
21820;SDS011;11073;48.586;12.066;2022-08-01T13:52:14;6.95;;;1.20;;
21820;SDS011;11073;48.586;12.066;2022-08-01T13:54:42;1.10;;;1.00;;
21820;SDS011;11073;48.586;12.066;2022-08-01T13:57:11;2.88;;;1.30;;
21820;SDS011;11073;48.586;12.066;2022-08-01T13:59:42;3.85;;;1.15;;
21820;SDS011;11073;48.586;12.066;2022-08-01T14:02:11;1.05;;;0.95;;
21820;SDS011;11073;48.586;12.066;2022-08-01T14:04:40;3.33;;;1.20;;
21820;SDS011;11073;48.586;12.066;2022-08-01T14:07:09;1.40;;;1.08;;
21820;SDS011;11073;48.586;12.066;2022-08-01T14:09:41;2.15;;;1.50;;
21820;SDS011;11073;48.586;12.066;2022-08-01T14:12:31;1.98;;;1.50;;
21820;SDS011;11073;48.586;12.066;2022-08-01T14:15:01;1.52;;;1.20;;
21820;SDS011;11073;48.586;12.066;2022-08-01T14:17:29;4.78;;;1.10;;
21820;SDS011;11073;48.586;12.066;2022-08-01T14:20:04;1.27;;;1.17;;
21820;SDS011;11073;48.586;12.066;2022-08-01T14:22:33;1.55;;;1.02;;
21820;SDS011;11073;48.586;12.066;2022-08-01T14:25:02;4.47;;;1.23;;
21820;SDS011;11073;48.586;12.066;2022-08-01T14:27:32;16.23;;;2.10;;
21820;SDS011;11073;48.586;12.066;2022-08-01T14:30:05;4.50;;;1.30;;
21820;SDS011;11073;48.586;12.066;2022-08-01T14:32:35;3.83;;;1.27;;
21820;SDS011;11073;48.586;12.066;2022-08-01T14:35:05;5.57;;;1.13;;
21820;SDS011;11073;48.586;12.066;2022-08-01T14:37:34;3.05;;;1.20;;
21820;SDS011;11073;48.586;12.066;2022-08-01T14:40:05;1.73;;;1.10;;
21820;SDS011;11073;48.586;12.066;2022-08-01T14:42:37;1.33;;;1.17;;
21820;SDS011;11073;48.586;12.066;2022-08-01T14:45:08;1.98;;;1.30;;
21820;SDS011;11073;48.586;12.066;2022-08-01T14:47:38;1.38;;;1.08;;
21820;SDS011;11073;48.586;12.066;2022-08-01T14:50:08;4.68;;;1.30;;
21820;SDS011;11073;48.586;12.066;2022-08-01T14:52:40;3.53;;;1.10;;
21820;SDS011;11073;48.586;12.066;2022-08-01T14:55:10;2.45;;;1.33;;
21820;SDS011;11073;48.586;12.066;2022-08-01T14:57:40;1.70;;;1.10;;
21820;SDS011;11073;48.586;12.066;2022-08-01T15:00:10;2.95;;;1.20;;
21820;SDS011;11073;48.586;12.066;2022-08-01T15:02:41;4.45;;;1.30;;
21820;SDS011;11073;48.586;12.066;2022-08-01T15:05:09;1.25;;;1.15;;
21820;SDS011;11073;48.586;12.066;2022-08-01T15:07:38;2.58;;;1.35;;
21820;SDS011;11073;48.586;12.066;2022-08-01T15:10:20;3.20;;;1.27;;
21820;SDS011;11073;48.586;12.066;2022-08-01T15:12:48;2.17;;;1.38;;
21820;SDS011;11073;48.586;12.066;2022-08-01T15:15:18;2.17;;;1.10;;
21820;SDS011;11073;48.586;12.066;2022-08-01T15:17:47;2.67;;;1.48;;
21820;SDS011;11073;48.586;12.066;2022-08-01T15:20:16;2.28;;;1.40;;
21820;SDS011;11073;48.586;12.066;2022-08-01T15:22:45;2.33;;;1.30;;